createdAt,value
2022-10-02T00:00:16.914Z,100.00
2022-10-02T00:03:23.904Z,100.00
2022-10-02T00:06:11.800Z,100.00
2022-10-02T00:08:43.706Z,100.00
2022-10-02T00:11:27.510Z,100.00
2022-10-02T00:14:02.305Z,100.00
2022-10-02T00:16:40.339Z,100.00
2022-10-02T00:19:12.319Z,100.00
2022-10-02T00:22:13.968Z,100.00
2022-10-02T00:25:12.449Z,100.00
2022-10-02T00:28:28.529Z,100.00
2022-10-02T00:31:44.922Z,100.00
2022-10-02T00:35:03.233Z,100.00
2022-10-02T00:37:50.892Z,100.00
2022-10-02T00:41:22.220Z,100.00
2022-10-02T00:44:22.769Z,100.00
2022-10-02T00:47:43.663Z,100.00
2022-10-02T00:50:22.248Z,100.00
2022-10-02T00:53:19.623Z,100.00
2022-10-02T00:55:57.505Z,100.00
2022-10-02T00:59:13.605Z,100.00
2022-10-02T01:02:07.279Z,100.00
2022-10-02T01:04:38.946Z,100.00
2022-10-02T01:07:11.291Z,100.00
2022-10-02T01:09:40.334Z,100.00
2022-10-02T01:12:08.429Z,100.00
2022-10-02T01:14:39.220Z,100.00
2022-10-02T01:17:33.250Z,100.00
2022-10-02T01:20:07.805Z,100.00
2022-10-02T01:22:49.207Z,100.00
2022-10-02T01:25:16.724Z,100.00
2022-10-02T01:27:44.315Z,100.00
2022-10-02T01:30:17.461Z,100.00
2022-10-02T01:32:58.082Z,100.00
2022-10-02T01:35:35.800Z,100.00
2022-10-02T01:38:13.572Z,100.00
2022-10-02T01:40:42.183Z,100.00
2022-10-02T01:43:19.711Z,100.00
2022-10-02T01:46:21.706Z,100.00
2022-10-02T01:49:34.877Z,100.00
2022-10-02T01:52:26.254Z,100.00
2022-10-02T01:56:01.270Z,100.00
2022-10-02T01:58:55.921Z,100.00
2022-10-02T02:01:25.923Z,100.00
2022-10-02T02:04:27.073Z,100.00
2022-10-02T02:07:26.318Z,100.00
2022-10-02T02:10:06.788Z,100.00
2022-10-02T02:12:47.657Z,100.00
2022-10-02T02:15:33.572Z,100.00
2022-10-02T02:18:24.465Z,100.00
2022-10-02T02:20:56.191Z,100.00
2022-10-02T02:23:31.552Z,100.00
2022-10-02T02:26:08.555Z,100.00
2022-10-02T02:28:38.278Z,100.00
2022-10-02T02:31:10.101Z,100.00
2022-10-02T02:33:50.603Z,100.00
2022-10-02T02:36:24.295Z,100.00
2022-10-02T02:39:00.747Z,100.00
2022-10-02T02:41:37.425Z,100.00
2022-10-02T02:44:30.172Z,100.00
2022-10-02T02:47:22.599Z,100.00
2022-10-02T02:50:12.337Z,100.00
2022-10-02T02:52:53.465Z,100.00
2022-10-02T02:55:29.160Z,100.00
2022-10-02T02:58:03.671Z,100.00
2022-10-02T03:00:32.333Z,100.00
2022-10-02T03:02:59.584Z,100.00
2022-10-02T03:05:29.654Z,100.00
2022-10-02T03:08:07.865Z,100.00
2022-10-02T03:11:25.211Z,100.00
2022-10-02T03:14:21.371Z,100.00
2022-10-02T03:17:16.109Z,100.00
2022-10-02T03:20:17.653Z,100.00
2022-10-02T03:23:12.423Z,100.00
2022-10-02T03:26:04.169Z,100.00
2022-10-02T03:28:55.615Z,100.00
2022-10-02T03:31:29.789Z,100.00
2022-10-02T03:34:00.576Z,100.00
2022-10-02T03:36:28.732Z,99.63
2022-10-02T03:39:23.687Z,99.52
2022-10-02T03:41:48.808Z,99.48
2022-10-02T03:44:16.020Z,99.34
2022-10-02T03:46:43.358Z,99.40
2022-10-02T03:49:10.959Z,99.15
2022-10-02T03:51:38.123Z,98.67
2022-10-02T03:54:18.135Z,98.13
2022-10-02T03:56:55.304Z,97.42
2022-10-02T03:59:43.199Z,96.97
2022-10-02T04:02:43.261Z,96.90
2022-10-02T04:05:13.951Z,96.64
2022-10-02T04:07:51.733Z,95.85
2022-10-02T04:10:52.984Z,95.92
2022-10-02T04:13:56.027Z,95.40
2022-10-02T04:16:41.258Z,95.53
2022-10-02T04:19:40.416Z,95.08
2022-10-02T04:22:35.132Z,94.89
2022-10-02T04:25:22.193Z,94.56
2022-10-02T04:28:05.752Z,94.76
2022-10-02T04:30:33.334Z,94.91
2022-10-02T04:33:17.809Z,95.08
2022-10-02T04:36:30.015Z,94.77
2022-10-02T04:39:10.506Z,94.58
2022-10-02T04:41:49.565Z,94.58
2022-10-02T04:44:46.985Z,94.54
2022-10-02T04:47:43.306Z,94.78
2022-10-02T04:50:44.352Z,94.03
2022-10-02T04:54:04.419Z,93.60
2022-10-02T04:56:54.335Z,93.72
2022-10-02T04:59:50.137Z,94.16
2022-10-02T05:02:44.151Z,93.93
2022-10-02T05:05:33.047Z,94.21
2022-10-02T05:08:34.470Z,93.97
2022-10-02T05:11:32.522Z,93.93
2022-10-02T05:14:30.182Z,93.36
2022-10-02T05:17:35.836Z,93.08
2022-10-02T05:20:20.786Z,93.11
2022-10-02T05:23:02.885Z,92.79
2022-10-02T05:25:57.476Z,92.35
2022-10-02T05:28:45.999Z,92.72
2022-10-02T05:31:34.542Z,92.98
2022-10-02T05:34:29.326Z,92.91
2022-10-02T05:37:41.953Z,92.72
2022-10-02T05:40:34.037Z,92.64
2022-10-02T05:43:24.368Z,91.88
2022-10-02T05:46:22.800Z,91.69
2022-10-02T05:48:57.808Z,91.66
2022-10-02T05:51:59.358Z,91.53
2022-10-02T05:54:54.150Z,91.05
2022-10-02T05:57:27.110Z,91.00
2022-10-02T06:00:41.032Z,90.28
2022-10-02T06:03:36.137Z,90.13
2022-10-02T06:06:26.753Z,89.46
2022-10-02T06:09:02.840Z,88.17
2022-10-02T06:11:40.562Z,88.42
2022-10-02T06:14:47.321Z,88.02
2022-10-02T06:18:02.943Z,87.74
2022-10-02T06:20:46.615Z,87.23
2022-10-02T06:23:17.194Z,86.95
2022-10-02T06:26:40.161Z,86.33
2022-10-02T06:29:26.901Z,85.71
2022-10-02T06:32:25.068Z,85.19
2022-10-02T06:34:52.554Z,84.96
2022-10-02T06:37:40.304Z,84.14
2022-10-02T06:41:16.732Z,83.98
2022-10-02T06:44:23.251Z,83.21
2022-10-02T06:47:05.073Z,82.76
2022-10-02T06:49:57.971Z,82.66
2022-10-02T06:52:53.480Z,81.40
2022-10-02T06:56:19.237Z,81.23
2022-10-02T06:58:57.226Z,81.09
2022-10-02T07:01:56.422Z,81.44
2022-10-02T07:05:06.087Z,81.33
2022-10-02T07:07:52.474Z,80.56
2022-10-02T07:10:55.407Z,80.64
2022-10-02T07:13:44.551Z,80.20
2022-10-02T07:16:18.183Z,79.40
2022-10-02T07:19:02.332Z,78.82
2022-10-02T07:21:47.278Z,78.55
2022-10-02T07:24:35.886Z,77.79
2022-10-02T07:27:21.062Z,77.58
2022-10-02T07:30:10.836Z,77.23
2022-10-02T07:33:03.722Z,76.55
2022-10-02T07:35:43.886Z,76.43
2022-10-02T07:38:22.953Z,76.27
2022-10-02T07:41:07.052Z,75.15
2022-10-02T07:43:58.677Z,73.96
2022-10-02T07:47:00.388Z,73.70
2022-10-02T07:49:56.125Z,74.13
2022-10-02T07:52:36.641Z,74.08
2022-10-02T07:55:16.376Z,73.48
2022-10-02T07:58:10.114Z,73.41
2022-10-02T08:00:47.712Z,73.26
2022-10-02T08:03:24.404Z,72.31
2022-10-02T08:05:55.706Z,70.90
2022-10-02T08:08:32.172Z,67.29
2022-10-02T08:11:37.261Z,64.62
2022-10-02T08:14:32.161Z,60.94
2022-10-02T08:17:19.686Z,58.75
2022-10-02T08:19:52.432Z,52.40
2022-10-02T08:22:39.381Z,54.37
2022-10-02T08:25:36.871Z,56.08
2022-10-02T08:29:01.348Z,58.39
2022-10-02T08:31:29.796Z,58.70
2022-10-02T08:33:57.715Z,58.21
2022-10-02T08:36:46.031Z,55.69
2022-10-02T08:39:31.053Z,51.69
2022-10-02T08:42:17.198Z,54.21
2022-10-02T08:45:15.453Z,45.22
2022-10-02T08:47:48.627Z,41.90
2022-10-02T08:51:06.219Z,38.13
2022-10-02T08:54:19.309Z,34.27
2022-10-02T08:57:46.099Z,39.59
2022-10-02T09:00:40.108Z,45.16
2022-10-02T09:03:45.893Z,49.40
2022-10-02T09:06:52.189Z,50.25
2022-10-02T09:09:45.982Z,38.71
2022-10-02T09:12:25.175Z,34.15
2022-10-02T09:15:03.217Z,28.86
2022-10-02T09:17:47.646Z,27.87
2022-10-02T09:21:13.125Z,27.91
2022-10-02T09:24:01.005Z,26.62
2022-10-02T09:26:36.852Z,28.68
2022-10-02T09:29:52.104Z,31.86
2022-10-02T09:32:34.983Z,26.35
2022-10-02T09:35:46.743Z,21.16
2022-10-02T09:38:45.115Z,18.66
2022-10-02T09:41:49.667Z,16.00
2022-10-02T09:45:01.787Z,19.49
2022-10-02T09:48:19.727Z,23.20
2022-10-02T09:51:41.853Z,28.83
2022-10-02T09:54:57.174Z,27.04
2022-10-02T09:57:31.892Z,28.25
2022-10-02T10:00:49.633Z,27.77
2022-10-02T10:03:38.335Z,31.85
2022-10-02T10:06:17.677Z,34.74
2022-10-02T10:09:11.840Z,34.16
2022-10-02T10:12:02.001Z,35.20
2022-10-02T10:15:09.450Z,37.14
2022-10-02T10:18:10.520Z,37.88
2022-10-02T10:21:30.440Z,39.69
2022-10-02T10:24:26.784Z,40.40
2022-10-02T10:27:13.459Z,40.81
2022-10-02T10:30:17.639Z,37.66
2022-10-02T10:33:42.204Z,36.28
2022-10-02T10:36:59.363Z,34.46
2022-10-02T10:40:37.200Z,35.16
2022-10-02T10:43:29.121Z,30.22
2022-10-02T10:46:46.153Z,27.65
2022-10-02T10:49:47.717Z,25.57
2022-10-02T10:52:25.267Z,25.48
2022-10-02T10:55:07.996Z,25.84
2022-10-02T10:58:00.217Z,29.14
2022-10-02T11:00:53.619Z,32.29
2022-10-02T11:03:45.001Z,35.30
2022-10-02T11:07:08.084Z,30.52
2022-10-02T11:10:20.769Z,30.33
2022-10-02T11:13:21.552Z,32.84
2022-10-02T11:16:52.442Z,34.38
2022-10-02T11:19:29.961Z,36.48
2022-10-02T11:22:10.456Z,36.73
2022-10-02T11:25:21.654Z,38.96
2022-10-02T11:28:46.972Z,40.61
2022-10-02T11:31:47.865Z,37.43
2022-10-02T11:34:47.609Z,34.40
2022-10-02T11:37:59.602Z,34.63
2022-10-02T11:41:07.726Z,32.54
2022-10-02T11:44:05.637Z,35.85
2022-10-02T11:47:19.677Z,33.55
2022-10-02T11:50:23.526Z,30.88
2022-10-02T11:53:02.811Z,33.80
2022-10-02T11:55:52.971Z,37.27
2022-10-02T11:58:45.195Z,39.03
2022-10-02T12:01:42.231Z,39.92
2022-10-02T12:04:18.749Z,40.36
2022-10-02T12:07:10.745Z,36.46
2022-10-02T12:10:15.663Z,35.10
2022-10-02T12:13:16.070Z,34.65
2022-10-02T12:16:07.920Z,25.36
2022-10-02T12:18:41.096Z,22.57
2022-10-02T12:21:41.663Z,19.25
2022-10-02T12:24:46.026Z,18.12
2022-10-02T12:28:11.907Z,21.86
2022-10-02T12:31:30.063Z,17.88
2022-10-02T12:34:25.477Z,17.46
2022-10-02T12:37:06.241Z,16.92
2022-10-02T12:39:52.744Z,15.22
2022-10-02T12:43:10.488Z,15.91
2022-10-02T12:46:19.112Z,15.11
2022-10-02T12:49:34.283Z,14.74
2022-10-02T12:52:40.047Z,18.60
2022-10-02T12:55:27.435Z,19.48
2022-10-02T12:58:24.907Z,19.85
2022-10-02T13:01:32.042Z,22.05
2022-10-02T13:04:38.112Z,20.81
2022-10-02T13:07:41.920Z,18.60
2022-10-02T13:10:24.906Z,20.22
2022-10-02T13:13:25.111Z,22.51
2022-10-02T13:16:46.671Z,20.93
2022-10-02T13:20:10.787Z,18.42
2022-10-02T13:23:10.289Z,16.93
2022-10-02T13:26:00.325Z,16.77
2022-10-02T13:28:40.521Z,17.19
2022-10-02T13:31:29.143Z,19.56
2022-10-02T13:34:06.936Z,20.50
2022-10-02T13:37:10.876Z,22.67
2022-10-02T13:40:35.512Z,21.75
2022-10-02T13:43:21.444Z,19.86
2022-10-02T13:46:43.081Z,20.65
2022-10-02T13:49:38.491Z,20.98
2022-10-02T13:52:35.722Z,20.45
2022-10-02T13:55:17.608Z,22.94
2022-10-02T13:58:37.744Z,25.09
2022-10-02T14:01:26.848Z,27.77
2022-10-02T14:04:41.655Z,30.74
2022-10-02T14:07:27.251Z,32.35
2022-10-02T14:10:35.032Z,33.81
2022-10-02T14:13:31.655Z,34.01
2022-10-02T14:16:11.039Z,34.56
2022-10-02T14:19:23.691Z,35.42
2022-10-02T14:23:03.705Z,36.11
2022-10-02T14:25:46.579Z,35.90
2022-10-02T14:28:54.984Z,33.63
2022-10-02T14:32:00.117Z,33.69
2022-10-02T14:35:03.239Z,33.21
2022-10-02T14:37:57.548Z,32.66
2022-10-02T14:40:42.829Z,31.23
2022-10-02T14:43:37.279Z,28.76
2022-10-02T14:46:10.340Z,28.58
2022-10-02T14:49:02.081Z,29.17
2022-10-02T14:52:35.282Z,30.42
2022-10-02T14:55:44.274Z,32.49
2022-10-02T14:58:42.883Z,34.34
2022-10-02T15:01:23.933Z,36.01
2022-10-02T15:04:24.089Z,37.76
2022-10-02T15:07:26.125Z,38.89
2022-10-02T15:10:34.012Z,40.18
2022-10-02T15:13:19.201Z,40.88
2022-10-02T15:16:38.663Z,41.33
2022-10-02T15:19:20.704Z,42.70
2022-10-02T15:22:28.471Z,44.31
2022-10-02T15:25:18.076Z,45.74
2022-10-02T15:28:35.881Z,46.30
2022-10-02T15:31:31.341Z,46.35
2022-10-02T15:34:42.463Z,45.36
2022-10-02T15:37:32.868Z,47.36
2022-10-02T15:40:08.946Z,49.77
2022-10-02T15:42:52.451Z,51.08
2022-10-02T15:46:08.291Z,52.84
2022-10-02T15:49:06.609Z,54.99
2022-10-02T15:52:00.321Z,55.82
2022-10-02T15:54:51.943Z,56.52
2022-10-02T15:57:49.538Z,58.48
2022-10-02T16:00:22.092Z,58.64
2022-10-02T16:03:31.802Z,58.56
2022-10-02T16:06:36.440Z,57.74
2022-10-02T16:09:26.816Z,58.62
2022-10-02T16:11:58.455Z,58.57
2022-10-02T16:15:10.361Z,59.16
2022-10-02T16:18:01.661Z,59.04
2022-10-02T16:21:13.603Z,59.08
2022-10-02T16:24:08.272Z,60.12
2022-10-02T16:27:09.693Z,60.51
2022-10-02T16:30:15.326Z,60.32
2022-10-02T16:33:13.205Z,60.91
2022-10-02T16:35:58.623Z,61.33
2022-10-02T16:39:13.224Z,63.18
2022-10-02T16:42:02.232Z,62.53
2022-10-02T16:45:13.841Z,63.97
2022-10-02T16:48:09.784Z,63.51
2022-10-02T16:51:02.650Z,63.94
2022-10-02T16:53:40.170Z,64.05
2022-10-02T16:56:17.457Z,64.41
2022-10-02T16:59:22.230Z,64.85
2022-10-02T17:02:18.010Z,65.43
2022-10-02T17:05:06.847Z,64.91
2022-10-02T17:08:31.139Z,65.38
2022-10-02T17:11:57.608Z,65.62
2022-10-02T17:15:14.486Z,66.11
2022-10-02T17:18:11.524Z,66.25
2022-10-02T17:20:54.663Z,66.91
2022-10-02T17:23:39.969Z,67.23
2022-10-02T17:27:12.756Z,67.73
2022-10-02T17:30:04.215Z,67.45
2022-10-02T17:32:51.243Z,67.97
2022-10-02T17:35:57.381Z,68.29
2022-10-02T17:39:21.451Z,69.43
2022-10-02T17:42:11.723Z,69.59
2022-10-02T17:45:26.397Z,70.99
2022-10-02T17:48:08.230Z,71.51
2022-10-02T17:50:45.444Z,72.61
2022-10-02T17:53:37.053Z,72.89
2022-10-02T17:56:32.438Z,74.18
2022-10-02T17:59:25.803Z,74.94
2022-10-02T18:02:14.392Z,75.66
2022-10-02T18:05:34.331Z,76.36
2022-10-02T18:08:36.674Z,77.84
2022-10-02T18:11:49.929Z,78.18
2022-10-02T18:14:42.101Z,78.32
2022-10-02T18:17:41.468Z,78.64
2022-10-02T18:20:36.582Z,79.39
2022-10-02T18:23:37.879Z,81.32
2022-10-02T18:26:23.351Z,81.53
2022-10-02T18:29:21.237Z,80.57
2022-10-02T18:31:56.590Z,79.66
2022-10-02T18:34:54.635Z,79.18
2022-10-02T18:37:50.316Z,79.65
2022-10-02T18:40:34.168Z,80.91
2022-10-02T18:43:11.166Z,81.49
2022-10-02T18:46:27.496Z,82.84
2022-10-02T18:49:12.578Z,83.95
2022-10-02T18:51:45.813Z,84.68
2022-10-02T18:54:37.589Z,85.20
2022-10-02T18:57:07.821Z,86.03
2022-10-02T19:00:15.843Z,86.98
2022-10-02T19:03:51.571Z,87.85
2022-10-02T19:07:03.118Z,88.58
2022-10-02T19:09:31.490Z,89.28
2022-10-02T19:12:13.445Z,89.52
2022-10-02T19:14:46.401Z,89.57
2022-10-02T19:17:21.977Z,89.95
2022-10-02T19:19:49.153Z,90.41
2022-10-02T19:22:24.522Z,90.56
2022-10-02T19:25:05.638Z,90.79
2022-10-02T19:27:37.639Z,90.81
2022-10-02T19:30:22.070Z,91.58
2022-10-02T19:32:51.659Z,91.14
2022-10-02T19:35:32.417Z,92.16
2022-10-02T19:38:33.391Z,92.67
2022-10-02T19:41:09.867Z,92.73
2022-10-02T19:43:58.419Z,93.24
2022-10-02T19:46:48.503Z,93.01
2022-10-02T19:49:32.463Z,93.97
2022-10-02T19:51:59.821Z,93.89
2022-10-02T19:54:37.959Z,93.99
2022-10-02T19:57:16.497Z,94.71
2022-10-02T19:59:54.245Z,95.08
2022-10-02T20:02:36.532Z,95.82
2022-10-02T20:05:11.715Z,96.47
2022-10-02T20:07:40.329Z,96.69
2022-10-02T20:11:16.253Z,97.40
2022-10-02T20:14:03.714Z,97.55
2022-10-02T20:16:49.990Z,98.06
2022-10-02T20:19:23.890Z,98.54
2022-10-02T20:22:26.188Z,98.93
2022-10-02T20:25:18.351Z,99.54
2022-10-02T20:27:56.666Z,100.00
2022-10-02T20:30:35.866Z,99.84
2022-10-02T20:33:35.723Z,100.00
2022-10-02T20:36:17.176Z,100.00
2022-10-02T20:39:05.353Z,100.00
2022-10-02T20:41:57.667Z,100.00
2022-10-02T20:44:29.352Z,100.00
2022-10-02T20:48:06.184Z,100.00
2022-10-02T20:51:01.916Z,100.00
2022-10-02T20:54:25.434Z,100.00
2022-10-02T20:57:56.250Z,100.00
2022-10-02T21:00:28.987Z,100.00
2022-10-02T21:03:21.194Z,100.00
2022-10-02T21:06:11.334Z,100.00
2022-10-02T21:09:22.580Z,100.00
2022-10-02T21:12:37.130Z,100.00
2022-10-02T21:15:39.714Z,100.00
2022-10-02T21:18:15.869Z,100.00
2022-10-02T21:21:15.681Z,100.00
2022-10-02T21:24:06.939Z,100.00
2022-10-02T21:27:12.933Z,100.00
2022-10-02T21:30:18.862Z,100.00
2022-10-02T21:33:19.516Z,100.00
2022-10-02T21:36:06.858Z,100.00
2022-10-02T21:39:16.869Z,100.00
2022-10-02T21:42:31.959Z,100.00
2022-10-02T21:45:23.904Z,100.00
2022-10-02T21:48:04.787Z,100.00
2022-10-02T21:51:19.695Z,100.00
2022-10-02T21:54:27.750Z,100.00
2022-10-02T21:57:19.097Z,100.00
2022-10-02T22:00:14.077Z,100.00
2022-10-02T22:03:35.886Z,100.00
2022-10-02T22:06:21.603Z,100.00
2022-10-02T22:08:57.663Z,100.00
2022-10-02T22:11:50.888Z,100.00
2022-10-02T22:14:34.861Z,100.00
2022-10-02T22:17:25.288Z,100.00
2022-10-02T22:20:24.670Z,100.00
2022-10-02T22:23:33.010Z,100.00
2022-10-02T22:26:25.370Z,100.00
2022-10-02T22:29:25.695Z,100.00
2022-10-02T22:32:39.490Z,100.00
2022-10-02T22:35:49.242Z,100.00
2022-10-02T22:38:39.530Z,100.00
2022-10-02T22:41:29.318Z,100.00
2022-10-02T22:44:23.055Z,100.00
2022-10-02T22:47:09.075Z,100.00
2022-10-02T22:50:03.711Z,100.00
2022-10-02T22:52:42.912Z,100.00
2022-10-02T22:55:46.558Z,100.00
2022-10-02T22:58:30.454Z,100.00
2022-10-02T23:01:29.742Z,100.00
2022-10-02T23:04:09.001Z,100.00
2022-10-02T23:06:54.974Z,100.00
2022-10-02T23:09:38.365Z,100.00
2022-10-02T23:12:23.311Z,100.00
2022-10-02T23:15:44.827Z,100.00
2022-10-02T23:18:16.543Z,100.00
2022-10-02T23:20:53.316Z,100.00
2022-10-02T23:23:33.691Z,100.00
2022-10-02T23:26:33.586Z,100.00
2022-10-02T23:29:27.422Z,100.00
2022-10-02T23:32:35.683Z,100.00
2022-10-02T23:35:13.963Z,100.00
2022-10-02T23:38:05.032Z,100.00
2022-10-02T23:41:17.580Z,100.00
2022-10-02T23:44:10.528Z,100.00
2022-10-02T23:47:01.830Z,100.00
2022-10-02T23:50:24.336Z,100.00
2022-10-02T23:53:12.872Z,100.00
2022-10-02T23:56:17.278Z,100.00
2022-10-02T23:59:15.067Z,100.00
